Flight Track Log - Related Links

Times and Time Zones

All times are in EDT time to prevent confusion due to time zone crossing. See the N273SK flight status page for this flight to view local times or setup timezone preferences in your user account.

Time Position Orientation Groundspeed Altitude Reporting Facility
EDT Latitude Longitude Course Direction KTS MPH feet Rate Location/Type
Mon 09:13:22 AM 40.7500 -73.8500 90° East 155 178 2,200  Level New York TRACON
Mon 09:14:22 AM 40.7500 -73.7833 90° East 218 251 5,000 2,450 Climbing New York TRACON
Mon 09:15:22 AM 40.8167 -73.7500 21° North 274 315 7,100 2,154 Climbing New York TRACON
Mon 09:17:37 AM 40.9789 -73.6442 26° Northeast 303 349 12,000 2,246 Climbing Boston Center
Mon 09:18:37 AM 41.0669 -73.5853 27° Northeast 314 361 14,400 2,050 Climbing Boston Center
Mon 09:19:37 AM 41.1425 -73.5372 26° Northeast 326 375 16,100 1,750 Climbing Boston Center
Mon 09:20:37 AM 41.2411 -73.4697 27° Northeast 343 395 17,900 1,591 Climbing Boston Center
Mon 09:21:49 AM 41.3458 -73.4078 24° Northeast 348 400 19,600 1,682 Climbing Boston Center
Mon 09:22:49 AM 41.4381 -73.3428 28° Northeast 359 413 21,600 2,050 Climbing Boston Center
Mon 09:23:49 AM 41.5364 -73.3136 13° North 364 419 23,700 2,100 Climbing Boston Center
Mon 09:24:49 AM 41.6322 -73.3206 357° North 350 403 25,800 2,000 Climbing Boston Center
Mon 09:25:49 AM 41.7342 -73.3247 358° North 350 403 27,700 1,550 Climbing Boston Center
Mon 09:26:49 AM 41.8364 -73.3261 359° North 350 403 28,900 650 Climbing Boston Center
Mon 09:27:49 AM 41.9425 -73.3278 359° North 362 417 29,000 50 Climbing Boston Center
Mon 09:28:49 AM 42.0531 -73.3292 359° North 381 438 29,000  Level Boston Center
Mon 09:29:49 AM 42.1761 -73.3308 359° North 387 445 29,000  Level Boston Center
Mon 09:30:49 AM 42.2947 -73.3353 358° North 399 459 29,000 -50 Level Boston Center
Mon 09:31:49 AM 42.4011 -73.3286 North 414 476 28,900 -50 Descending Boston Center
Mon 09:32:49 AM 42.5136 -73.3414 355° North 414 476 28,900 50 Level Boston Center
Mon 09:33:49 AM 42.6406 -73.3603 354° North 414 476 29,000 50 Climbing Boston Center
Mon 09:34:49 AM 42.7531 -73.3675 357° North 414 476 29,000  Level Boston Center
Mon 09:35:49 AM 42.8697 -73.3778 356° North 414 476 29,000 -50 Level Boston Center
Mon 09:36:49 AM 42.9758 -73.3850 357° North 401 461 28,900 -50 Descending Boston Center
Mon 09:37:49 AM 43.0925 -73.3925 357° North 401 461 28,900 50 Level Boston Center
Mon 09:38:49 AM 43.1947 -73.3969 358° North 406 467 29,000 50 Climbing Boston Center
Mon 09:39:49 AM 43.3092 -73.4103 355° North 406 467 29,000  Level Boston Center
Mon 09:40:49 AM 43.4217 -73.4206 356° North 406 467 29,000  Level Boston Center
Mon 09:41:49 AM 43.5381 -73.4283 357° North 406 467 29,000  Level Boston Center
Mon 09:43:01 AM 43.6653 -73.4417 356° North 406 467 29,000  Level Boston Center
Mon 09:44:01 AM 43.8028 -73.4497 358° North 411 473 29,000  Level Boston Center
Mon 09:45:01 AM 43.9172 -73.4603 356° North 411 473 29,000  Level Boston Center
Mon 09:46:01 AM 44.0317 -73.4711 356° North 411 473 29,000 -250 Level Boston Center
Mon 09:47:01 AM 44.1483 -73.4786 357° North 405 466 28,500 -1,250 Descending Boston Center
Mon 09:48:01 AM 44.2628 -73.4894 356° North 411 473 26,500 -2,150 Descending Boston Center
Mon 09:49:01 AM 44.3731 -73.4972 357° North 403 464 24,200 -2,150 Descending Boston Center
Mon 09:50:01 AM 44.4772 -73.5078 356° North 393 452 22,200 -2,050 Descending Boston Center
Mon 09:51:01 AM 44.5833 -73.5156 357° North 382 440 20,100 -2,050 Descending Boston Center
Mon 09:52:01 AM 44.6853 -73.5261 356° North 376 433 18,100 -1,800 Descending Boston Center
Mon 09:53:01 AM 44.7833 -73.5367 356° North 364 419 16,500 -1,850 Descending Boston Center
Mon 09:54:01 AM 44.8769 -73.5444 357° North 350 403 14,400 -2,087 Descending Boston Center
Mon 09:54:56 AM 44.9500 -73.5333 North 340 391 12,500 -1,774 Descending Montreal Center
Mon 09:55:56 AM 45.0500 -73.5500 353° North 350 403 11,000 -1,550 Descending Montreal Center
Mon 09:56:56 AM 45.1333 -73.5667 352° North 310 357 9,400 -1,350 Descending Montreal Center
Mon 09:57:56 AM 45.2167 -73.5667 360° North 300 345 8,300 -700 Descending Montreal Center
Mon 09:58:56 AM 45.3000 -73.5833 352° North 300 345 8,000 -800 Descending Montreal Center
Mon 09:59:56 AM 45.3833 -73.5833 360° North 280 322 6,700 -1,000 Descending Montreal Center
Mon 10:00:56 AM 45.4500 -73.5333 28° Northeast 260 299 6,000 -1,100 Descending Montreal Center
Mon 10:01:56 AM 45.5000 -73.4833 35° Northeast 240 276 4,500 -1,000 Descending Montreal Center
Mon 10:02:56 AM 45.5667 -73.4500 19° North 230 265 4,000 -700 Descending Montreal Center
Mon 10:03:56 AM 45.6000 -73.5500 296° West 220 253 3,100 -650 Descending Montreal Center
Mon 10:04:56 AM 45.5667 -73.6000 226° Southwest 210 242 2,700 -800 Descending Montreal Center
Mon 10:05:56 AM 45.5167 -73.6667 223° Southwest 200 230 1,500 -1,000 Descending Montreal Center
Mon 10:06:56 AM 45.4833 -73.7000 215° Southwest 150 173 700 -700 Descending Montreal Center
Mon 10:07:56 AM 45.4667 -73.7500 245° Southwest 120 138 100 -600 Descending Montreal Center

Login

Don't have an account? Register now (free) for customized features, flight alerts, and more!